Time;durP1;ratioP1;P1;durP2;ratioP2;P2;SDS_P1;SDS_P2;PMS_P1;PMS_P2;Temp;Humidity;BMP_temperature;BMP_pressure;BME280_temperature;BME280_humidity;BME280_pressure;Samples;Min_cycle;Max_cycle;Signal;HPM_P1;HPM_P2
2022/09/11 00:00:38;;;;;;;;;;;18.30;61.20;;;;;;6155481;23;19931;-82
2022/09/11 00:03:04;;;;;;;;;;;18.30;60.60;;;;;;6162037;23;20326;-82
2022/09/11 00:05:32;;;;;;;;;;;18.30;60.10;;;;;;6158279;23;19940;-83
2022/09/11 00:07:58;;;;;;;;;;;18.30;60.10;;;;;;6158934;23;19932;-83
2022/09/11 00:10:27;;;;;;;;;;;18.20;60.10;;;;;;6162500;23;20296;-80
2022/09/11 00:12:53;;;;;;;;;;;18.20;59.80;;;;;;6155321;23;19917;-83
2022/09/11 00:15:20;;;;;;;;;;;18.20;59.80;;;;;;6160601;23;19936;-81
2022/09/11 00:17:47;;;;;;;;;;;18.20;59.10;;;;;;6157743;23;19916;-81
2022/09/11 00:20:13;;;;;;;;;;;18.20;57.60;;;;;;6158760;23;20338;-81
2022/09/11 00:22:40;;;;;;;;;;;18.20;55.90;;;;;;6160804;23;20257;-80
2022/09/11 00:25:07;;;;;;;;;;;18.20;56.00;;;;;;6165496;23;19929;-81
2022/09/11 00:27:34;;;;;;;;;;;18.20;55.70;;;;;;6165168;23;20465;-81
2022/09/11 00:30:01;;;;;;;;;;;18.30;56.00;;;;;;6158930;23;19983;-82
2022/09/11 00:32:28;;;;;;;;;;;18.30;55.30;;;;;;6162736;23;19920;-82
2022/09/11 00:34:55;;;;;;;;;;;18.30;55.20;;;;;;6160102;23;19943;-83
2022/09/11 00:37:21;;;;;;;;;;;18.20;55.00;;;;;;6162765;23;19922;-80
2022/09/11 00:39:49;;;;;;;;;;;18.20;55.80;;;;;;6162450;23;19920;-83
2022/09/11 00:42:16;;;;;;;;;;;18.30;54.70;;;;;;6156496;23;19917;-80
2022/09/11 00:44:44;;;;;;;;;;;18.20;53.90;;;;;;6160361;23;19933;-83
2022/09/11 00:47:13;;;;;;;;;;;18.20;53.20;;;;;;6162744;23;19988;-81
2022/09/11 00:49:45;;;;;;;;;;;18.30;53.40;;;;;;6159349;23;19916;-80
2022/09/11 00:52:19;;;;;;;;;;;18.30;52.50;;;;;;6156458;23;19917;-81
2022/09/11 00:54:48;;;;;;;;;;;18.30;51.80;;;;;;6157343;23;19991;-80
2022/09/11 00:57:15;;;;;;;;;;;18.40;50.60;;;;;;6157135;23;19928;-80
2022/09/11 00:59:42;;;;;;;;;;;18.50;50.60;;;;;;6156968;23;19940;-80
2022/09/11 01:02:14;;;;;;;;;;;18.50;50.90;;;;;;6159489;23;20333;-80
2022/09/11 01:04:42;;;;;;;;;;;18.50;50.80;;;;;;6155261;23;19916;-80
2022/09/11 01:07:11;;;;;;;;;;;18.60;49.10;;;;;;6158298;23;19943;-80
2022/09/11 01:09:38;;;;;;;;;;;18.60;48.60;;;;;;6159283;23;19916;-82
2022/09/11 01:12:08;;;;;;;;;;;18.80;48.30;;;;;;6158851;23;19927;-80
2022/09/11 01:14:43;;;;;;;;;;;18.90;47.70;;;;;;6158991;23;19928;-82
2022/09/11 01:17:28;;;;;;;;;;;19.00;47.20;;;;;;6159991;23;19916;-83
2022/09/11 01:19:57;;;;;;;;;;;19.10;46.10;;;;;;6159212;23;19943;-80
2022/09/11 01:22:30;;;;;;;;;;;19.20;46.10;;;;;;6154295;23;19917;-80
2022/09/11 01:25:02;;;;;;;;;;;19.20;46.00;;;;;;6159628;23;19940;-81
2022/09/11 01:27:32;;;;;;;;;;;19.30;44.70;;;;;;6161937;23;19987;-83
2022/09/11 01:30:06;;;;;;;;;;;19.40;45.00;;;;;;6162077;23;19925;-80
2022/09/11 01:32:44;;;;;;;;;;;19.40;45.10;;;;;;6167112;23;19956;-81
2022/09/11 01:35:13;;;;;;;;;;;19.50;44.20;;;;;;6158924;23;19932;-81
2022/09/11 01:38:04;;;;;;;;;;;19.60;43.60;;;;;;6155956;23;19921;-81
2022/09/11 01:40:44;;;;;;;;;;;19.60;43.60;;;;;;6156665;23;20261;-82
2022/09/11 01:43:14;;;;;;;;;;;19.70;43.70;;;;;;6157034;23;19923;-81
2022/09/11 01:45:43;;;;;;;;;;;19.80;44.60;;;;;;6163362;23;19917;-82
2022/09/11 01:48:11;;;;;;;;;;;19.80;43.10;;;;;;6161361;23;20336;-81
2022/09/11 01:50:39;;;;;;;;;;;19.80;42.90;;;;;;6158280;23;19973;-84
2022/09/11 01:53:05;;;;;;;;;;;19.90;42.60;;;;;;6157260;23;19952;-83
2022/09/11 01:55:38;;;;;;;;;;;19.90;42.30;;;;;;6157712;23;20215;-83
2022/09/11 01:58:09;;;;;;;;;;;20.00;42.30;;;;;;6161558;23;19944;-83
2022/09/11 02:04:10;;;;;;;;;;;20.00;42.60;;;;;;6167956;23;20325;-82
2022/09/11 02:06:45;;;;;;;;;;;19.90;42.60;;;;;;6161803;23;19951;-81
2022/09/11 02:09:13;;;;;;;;;;;20.00;41.70;;;;;;6160378;23;20260;-83
2022/09/11 02:11:41;;;;;;;;;;;20.10;41.90;;;;;;6164285;23;19956;-81
2022/09/11 02:14:15;;;;;;;;;;;20.00;42.40;;;;;;6156842;23;20245;-80
2022/09/11 02:17:00;;;;;;;;;;;20.00;42.10;;;;;;6156086;23;19992;-83
2022/09/11 02:19:28;;;;;;;;;;;20.00;42.40;;;;;;6155087;23;19947;-83
2022/09/11 02:21:56;;;;;;;;;;;20.00;42.10;;;;;;6156139;23;20249;-80
2022/09/11 02:24:24;;;;;;;;;;;20.10;42.00;;;;;;6152867;23;19948;-80
2022/09/11 02:26:53;;;;;;;;;;;20.10;41.70;;;;;;6161939;23;19916;-81
2022/09/11 02:29:20;;;;;;;;;;;20.10;42.00;;;;;;6156335;23;20249;-80
2022/09/11 02:31:47;;;;;;;;;;;20.10;42.00;;;;;;6159920;23;19948;-81
2022/09/11 02:34:14;;;;;;;;;;;20.00;42.10;;;;;;6162823;23;19940;-83
2022/09/11 02:36:41;;;;;;;;;;;20.00;42.40;;;;;;6156958;23;20007;-81
2022/09/11 02:39:33;;;;;;;;;;;20.00;42.00;;;;;;6154498;23;19947;-81
2022/09/11 02:42:06;;;;;;;;;;;20.00;41.80;;;;;;6154321;23;20368;-81
2022/09/11 02:44:36;;;;;;;;;;;20.00;42.60;;;;;;6154533;23;19971;-80
2022/09/11 02:47:26;;;;;;;;;;;19.90;42.40;;;;;;6154029;23;20329;-83
2022/09/11 02:50:07;;;;;;;;;;;19.90;42.30;;;;;;6152773;23;19955;-81
2022/09/11 02:53:01;;;;;;;;;;;19.90;43.30;;;;;;6157597;23;19992;-81
2022/09/11 02:55:32;;;;;;;;;;;19.90;42.50;;;;;;6135648;23;19948;-82
2022/09/11 02:58:06;;;;;;;;;;;19.80;42.90;;;;;;6153211;23;19940;-81
2022/09/11 03:00:34;;;;;;;;;;;19.80;43.00;;;;;;6156523;23;19959;-80
2022/09/11 03:03:01;;;;;;;;;;;19.80;43.00;;;;;;6159372;23;19917;-84
2022/09/11 03:05:27;;;;;;;;;;;19.80;43.00;;;;;;6155310;23;19955;-80
2022/09/11 03:07:54;;;;;;;;;;;19.80;42.80;;;;;;6156072;23;19937;-80
2022/09/11 03:10:21;;;;;;;;;;;19.80;42.60;;;;;;6153678;23;19943;-81
2022/09/11 03:12:48;;;;;;;;;;;19.80;42.30;;;;;;6156682;23;19994;-84
2022/09/11 03:15:16;;;;;;;;;;;19.70;42.70;;;;;;6157200;23;19917;-81
2022/09/11 03:17:42;;;;;;;;;;;19.70;42.60;;;;;;6154415;23;19923;-81
2022/09/11 03:20:09;;;;;;;;;;;19.70;42.70;;;;;;6153214;23;19921;-80
2022/09/11 03:22:36;;;;;;;;;;;19.70;42.90;;;;;;6153553;23;20346;-81
2022/09/11 03:25:03;;;;;;;;;;;19.60;43.50;;;;;;6145508;23;20345;-80
2022/09/11 03:27:30;;;;;;;;;;;19.60;43.20;;;;;;6153488;23;19996;-81
2022/09/11 03:29:57;;;;;;;;;;;19.60;43.10;;;;;;6154353;23;19925;-81
2022/09/11 03:32:24;;;;;;;;;;;19.60;42.50;;;;;;6156043;23;19916;-81
2022/09/11 03:34:51;;;;;;;;;;;19.60;43.10;;;;;;6162384;23;19991;-81
2022/09/11 03:37:17;;;;;;;;;;;19.60;42.70;;;;;;6156257;23;19921;-80
2022/09/11 03:39:44;;;;;;;;;;;19.70;42.70;;;;;;6155729;23;19916;-81
2022/09/11 03:42:11;;;;;;;;;;;19.70;42.40;;;;;;6166311;23;20334;-82
2022/09/11 03:44:38;;;;;;;;;;;19.70;42.80;;;;;;6160038;23;19960;-81
2022/09/11 03:47:05;;;;;;;;;;;19.70;42.60;;;;;;6156068;23;19916;-80
2022/09/11 03:49:32;;;;;;;;;;;19.70;42.50;;;;;;6160978;23;20394;-80
2022/09/11 03:52:00;;;;;;;;;;;19.70;42.90;;;;;;6160044;23;19956;-83
2022/09/11 03:54:27;;;;;;;;;;;19.60;42.60;;;;;;6154745;23;19924;-81
2022/09/11 03:56:54;;;;;;;;;;;19.60;42.60;;;;;;6154962;23;19916;-81
2022/09/11 03:59:20;;;;;;;;;;;19.70;42.40;;;;;;6154952;23;20442;-83
2022/09/11 04:01:49;;;;;;;;;;;19.70;42.50;;;;;;6152977;23;19983;-82
2022/09/11 04:04:16;;;;;;;;;;;19.70;42.40;;;;;;6155507;23;19947;-83
2022/09/11 04:06:43;;;;;;;;;;;19.70;42.40;;;;;;6152532;23;19916;-83
2022/09/11 04:09:10;;;;;;;;;;;19.70;42.60;;;;;;6156156;23;19948;-83
2022/09/11 04:11:38;;;;;;;;;;;19.60;43.00;;;;;;6155115;23;19929;-83
2022/09/11 04:14:06;;;;;;;;;;;19.60;43.00;;;;;;6155499;23;19917;-83
2022/09/11 04:16:32;;;;;;;;;;;19.60;42.70;;;;;;6157787;23;20378;-80
2022/09/11 04:19:00;;;;;;;;;;;19.50;42.80;;;;;;6158838;23;20332;-85
2022/09/11 04:21:27;;;;;;;;;;;19.50;43.40;;;;;;6155808;23;19916;-81
2022/09/11 04:23:55;;;;;;;;;;;19.50;42.90;;;;;;6158270;23;19917;-84
2022/09/11 04:26:23;;;;;;;;;;;19.50;43.30;;;;;;6160468;23;19940;-81
2022/09/11 04:28:50;;;;;;;;;;;19.50;42.80;;;;;;6156834;23;20326;-81
2022/09/11 04:31:18;;;;;;;;;;;19.50;43.00;;;;;;6157777;23;19931;-83
2022/09/11 04:33:45;;;;;;;;;;;19.50;42.90;;;;;;6157752;23;20330;-82
2022/09/11 04:36:16;;;;;;;;;;;19.50;43.10;;;;;;6158399;23;19947;-82
2022/09/11 04:38:43;;;;;;;;;;;19.50;43.00;;;;;;6157137;23;19995;-83
2022/09/11 04:41:10;;;;;;;;;;;19.40;43.50;;;;;;6155751;23;20004;-80
2022/09/11 04:43:37;;;;;;;;;;;19.40;42.90;;;;;;6155845;23;19939;-81
2022/09/11 04:46:05;;;;;;;;;;;19.40;43.00;;;;;;6155602;23;19916;-81
2022/09/11 04:48:32;;;;;;;;;;;19.40;42.90;;;;;;6155811;23;19924;-83
2022/09/11 04:51:02;;;;;;;;;;;19.40;42.70;;;;;;6155376;23;19917;-83
2022/09/11 04:53:31;;;;;;;;;;;19.50;42.80;;;;;;6155112;23;20377;-83
2022/09/11 04:56:01;;;;;;;;;;;19.40;43.00;;;;;;6154109;23;19992;-80
2022/09/11 04:58:28;;;;;;;;;;;19.40;43.50;;;;;;6155290;23;19923;-81
2022/09/11 05:00:54;;;;;;;;;;;19.30;43.40;;;;;;6153590;23;19916;-83
2022/09/11 05:03:25;;;;;;;;;;;19.30;43.10;;;;;;6107275;23;20342;-83
2022/09/11 05:05:54;;;;;;;;;;;19.30;43.70;;;;;;6170545;23;19917;-82
2022/09/11 05:08:25;;;;;;;;;;;19.30;43.10;;;;;;6152209;23;19923;-82
2022/09/11 05:10:59;;;;;;;;;;;19.30;43.30;;;;;;6151527;23;19916;-81
2022/09/11 05:13:27;;;;;;;;;;;19.30;43.20;;;;;;6150006;23;19925;-84
2022/09/11 05:16:01;;;;;;;;;;;19.30;43.30;;;;;;6152962;23;19920;-81
2022/09/11 05:18:28;;;;;;;;;;;19.30;43.40;;;;;;6154891;23;20297;-82
2022/09/11 05:21:01;;;;;;;;;;;19.30;43.20;;;;;;6154241;23;19916;-82
2022/09/11 05:23:30;;;;;;;;;;;19.30;43.40;;;;;;6155681;23;19951;-82
2022/09/11 05:25:58;;;;;;;;;;;19.20;43.40;;;;;;6153709;23;20329;-80
2022/09/11 05:28:25;;;;;;;;;;;19.20;43.40;;;;;;6154261;23;19916;-79
2022/09/11 05:30:53;;;;;;;;;;;19.20;43.60;;;;;;6154721;23;20004;-81
2022/09/11 05:33:22;;;;;;;;;;;19.20;44.00;;;;;;6153043;23;19923;-79
2022/09/11 05:35:49;;;;;;;;;;;19.20;44.10;;;;;;6154202;23;19916;-80
2022/09/11 05:38:17;;;;;;;;;;;19.10;43.90;;;;;;6153179;23;19956;-80
2022/09/11 05:40:45;;;;;;;;;;;19.10;44.10;;;;;;6154563;23;19955;-81
2022/09/11 05:43:14;;;;;;;;;;;19.10;44.70;;;;;;6154605;23;20344;-78
2022/09/11 05:45:41;;;;;;;;;;;19.10;44.40;;;;;;6155467;23;19971;-83
2022/09/11 05:48:09;;;;;;;;;;;19.00;44.60;;;;;;6154269;23;20393;-84
2022/09/11 05:50:35;;;;;;;;;;;19.10;44.70;;;;;;6154700;23;19965;-80
2022/09/11 05:53:04;;;;;;;;;;;19.10;44.30;;;;;;6157041;23;19917;-81
2022/09/11 05:55:37;;;;;;;;;;;19.10;44.70;;;;;;6155360;23;20333;-83
2022/09/11 05:58:04;;;;;;;;;;;19.10;44.30;;;;;;6153844;23;19944;-81
2022/09/11 06:00:31;;;;;;;;;;;19.20;44.10;;;;;;6155911;23;20306;-81
2022/09/11 06:02:57;;;;;;;;;;;19.20;44.10;;;;;;6155224;23;19992;-82
2022/09/11 06:05:24;;;;;;;;;;;19.30;43.90;;;;;;6155620;23;20345;-80
2022/09/11 06:07:51;;;;;;;;;;;19.20;44.30;;;;;;6155349;23;19948;-83
2022/09/11 06:10:18;;;;;;;;;;;19.20;45.10;;;;;;6153345;23;19991;-81
2022/09/11 06:12:44;;;;;;;;;;;19.20;44.60;;;;;;6154577;23;19962;-81
2022/09/11 06:15:11;;;;;;;;;;;19.20;45.30;;;;;;6153766;23;19990;-81
2022/09/11 06:17:58;;;;;;;;;;;19.30;44.40;;;;;;6154149;23;19940;-82
2022/09/11 06:20:25;;;;;;;;;;;19.30;44.30;;;;;;6153448;23;19916;-81
2022/09/11 06:22:53;;;;;;;;;;;19.30;44.40;;;;;;6154447;23;19969;-80
2022/09/11 06:25:20;;;;;;;;;;;19.30;45.30;;;;;;6152920;23;19921;-83
2022/09/11 06:27:48;;;;;;;;;;;19.40;44.30;;;;;;6154262;23;19991;-81
2022/09/11 06:30:15;;;;;;;;;;;19.40;44.70;;;;;;6154691;23;19987;-81
2022/09/11 06:32:42;;;;;;;;;;;19.40;45.60;;;;;;6156142;23;19956;-83
2022/09/11 06:35:09;;;;;;;;;;;19.40;45.40;;;;;;6153351;23;20002;-81
2022/09/11 06:37:35;;;;;;;;;;;19.40;44.70;;;;;;6154106;23;19916;-81
2022/09/11 06:40:02;;;;;;;;;;;19.50;44.50;;;;;;6154288;23;20335;-82
2022/09/11 06:42:29;;;;;;;;;;;19.60;45.90;;;;;;6153502;23;19920;-81
2022/09/11 06:44:56;;;;;;;;;;;19.50;44.80;;;;;;6154257;23;20401;-81
2022/09/11 06:47:23;;;;;;;;;;;19.60;45.00;;;;;;6153655;23;20249;-84
2022/09/11 06:49:49;;;;;;;;;;;19.70;45.00;;;;;;6153693;23;19917;-81
2022/09/11 06:52:16;;;;;;;;;;;19.80;45.20;;;;;;6153157;23;19940;-81
2022/09/11 06:54:43;;;;;;;;;;;19.90;45.10;;;;;;6153572;23;19923;-83
2022/09/11 06:57:10;;;;;;;;;;;19.90;43.80;;;;;;6153459;23;19916;-81
2022/09/11 06:59:37;;;;;;;;;;;20.10;44.80;;;;;;6154011;23;19920;-83
2022/09/11 07:02:03;;;;;;;;;;;20.20;44.60;;;;;;6153290;23;20252;-81
2022/09/11 07:04:30;;;;;;;;;;;20.30;42.40;;;;;;6152754;23;19944;-80
2022/09/11 07:06:57;;;;;;;;;;;20.40;41.70;;;;;;6153840;23;19936;-81
2022/09/11 07:09:24;;;;;;;;;;;20.50;41.00;;;;;;6152885;23;19917;-81
2022/09/11 07:11:50;;;;;;;;;;;20.70;42.40;;;;;;6153462;23;19922;-81
2022/09/11 07:14:20;;;;;;;;;;;20.90;41.30;;;;;;6152560;23;19955;-81
2022/09/11 07:16:48;;;;;;;;;;;21.00;42.40;;;;;;6154580;23;19920;-81
2022/09/11 07:19:17;;;;;;;;;;;21.20;41.20;;;;;;6157687;23;19916;-80
2022/09/11 07:21:43;;;;;;;;;;;21.30;39.80;;;;;;6153738;23;19987;-83
2022/09/11 07:24:10;;;;;;;;;;;21.40;40.90;;;;;;6152813;23;19996;-81
2022/09/11 07:26:37;;;;;;;;;;;21.60;40.20;;;;;;6153800;23;19991;-81
2022/09/11 07:29:04;;;;;;;;;;;21.70;39.50;;;;;;6153611;23;19995;-81
2022/09/11 07:31:34;;;;;;;;;;;21.80;38.70;;;;;;6152804;23;20245;-81
2022/09/11 07:34:01;;;;;;;;;;;21.90;39.00;;;;;;6154143;23;20003;-82
2022/09/11 07:36:29;;;;;;;;;;;22.10;39.30;;;;;;6152819;23;19924;-81
2022/09/11 07:38:56;;;;;;;;;;;22.30;37.90;;;;;;6155428;23;19927;-81
2022/09/11 07:41:25;;;;;;;;;;;22.30;36.30;;;;;;6153758;23;19947;-82
2022/09/11 07:43:53;;;;;;;;;;;22.50;37.20;;;;;;6154491;23;19959;-81
2022/09/11 07:46:20;;;;;;;;;;;22.60;37.50;;;;;;6153962;23;19984;-81
2022/09/11 07:48:47;;;;;;;;;;;22.70;37.40;;;;;;6159830;23;19933;-81
2022/09/11 07:51:15;;;;;;;;;;;22.90;37.20;;;;;;6159420;23;19987;-82
2022/09/11 07:53:43;;;;;;;;;;;23.10;39.60;;;;;;6157946;23;19968;-84
2022/09/11 07:56:11;;;;;;;;;;;23.30;37.50;;;;;;6162026;23;19971;-82
2022/09/11 07:58:39;;;;;;;;;;;23.40;36.60;;;;;;6159164;23;20351;-83
2022/09/11 08:01:07;;;;;;;;;;;23.60;37.80;;;;;;6159202;23;19916;-84
2022/09/11 08:03:34;;;;;;;;;;;23.80;38.80;;;;;;6162238;23;19916;-81
2022/09/11 08:06:02;;;;;;;;;;;23.90;38.50;;;;;;6158847;23;19979;-81
2022/09/11 08:08:29;;;;;;;;;;;24.10;43.20;;;;;;6158450;23;19991;-81
2022/09/11 08:11:00;;;;;;;;;;;24.10;43.30;;;;;;6160607;23;19943;-83
2022/09/11 08:13:27;;;;;;;;;;;24.20;37.70;;;;;;6165650;23;19991;-83
2022/09/11 08:15:53;;;;;;;;;;;24.40;39.00;;;;;;6163334;23;19960;-81
2022/09/11 08:18:20;;;;;;;;;;;24.50;43.60;;;;;;6161739;23;19944;-81
2022/09/11 08:20:47;;;;;;;;;;;24.60;37.70;;;;;;6159343;23;19948;-82
2022/09/11 08:23:16;;;;;;;;;;;24.70;39.70;;;;;;6158810;23;19996;-81
2022/09/11 08:25:44;;;;;;;0.10;0.10;;;24.80;35.80;;;;;;6164053;23;19923;-84
2022/09/11 08:28:10;;;;;;;0.22;0.20;;;24.90;36.40;;;;;;6158550;23;20096;-81
2022/09/11 08:30:37;;;;;;;0.60;0.40;;;25.10;38.60;;;;;;6154521;23;20060;-82
2022/09/11 08:33:06;;;;;;;0.10;0.10;;;25.20;38.00;;;;;;6157979;23;20405;-81
2022/09/11 08:35:34;;;;;;;0.30;0.10;;;25.30;40.10;;;;;;6156737;23;20338;-82
2022/09/11 08:38:02;;;;;;;0.10;0.10;;;25.50;43.20;;;;;;6157232;23;20453;-83
2022/09/11 08:40:30;;;;;;;0.10;0.10;;;25.50;41.00;;;;;;6152891;23;20866;-81
2022/09/11 08:43:01;;;;;;;0.20;0.10;;;25.10;42.40;;;;;;6154996;23;20377;-82
2022/09/11 08:45:33;;;;;;;0.15;0.10;;;25.20;43.30;;;;;;6159863;23;20744;-81
2022/09/11 08:48:00;;;;;;;0.10;0.10;;;25.40;43.30;;;;;;6157838;23;20453;-82
2022/09/11 08:50:32;;;;;;;;;;;25.50;43.60;;;;;;6162149;23;20101;-82
2022/09/11 08:53:01;;;;;;;;;;;25.70;44.60;;;;;;6154770;23;19993;-82
2022/09/11 08:55:47;;;;;;;;;;;25.40;44.00;;;;;;6159388;23;20298;-83
2022/09/11 08:58:27;;;;;;;;;;;25.30;44.60;;;;;;6157359;23;19917;-82
2022/09/11 09:00:57;;;;;;;;;;;25.10;44.30;;;;;;6159863;23;19920;-81
2022/09/11 09:03:29;;;;;;;;;;;25.00;44.90;;;;;;6158065;23;19916;-82
2022/09/11 09:06:25;;;;;;;;;;;24.90;44.70;;;;;;6158611;23;19917;-81
2022/09/11 09:09:18;;;;;;;;;;;25.10;43.60;;;;;;6159814;23;19920;-82
2022/09/11 09:12:03;;;;;;;;;;;24.90;41.60;;;;;;6159028;23;20249;-82
2022/09/11 09:14:30;;;;;;;;;;;25.10;43.40;;;;;;6161975;23;19917;-84
2022/09/11 09:17:06;;;;;;;;;;;25.10;43.00;;;;;;6163155;23;19956;-82
2022/09/11 09:19:38;;;;;;;;;;;25.20;43.70;;;;;;6165986;23;19951;-81
2022/09/11 09:22:14;;;;;;;;;;;25.40;41.50;;;;;;6155621;23;19959;-83
2022/09/11 09:24:43;;;;;;;;;;;25.70;44.10;;;;;;6160259;23;19921;-82
2022/09/11 09:27:14;;;;;;;;;;;25.90;43.50;;;;;;6156810;23;19947;-83
2022/09/11 09:29:41;;;;;;;;;;;25.80;43.20;;;;;;6163081;23;19950;-82
2022/09/11 09:32:14;;;;;;;;;;;25.80;42.30;;;;;;6154533;23;19917;-82
2022/09/11 09:34:42;;;;;;;;;;;25.90;43.60;;;;;;6159461;23;19944;-82
2022/09/11 09:37:20;;;;;;;;;;;26.00;42.70;;;;;;6161089;23;19991;-82
2022/09/11 09:39:47;;;;;;;;;;;26.10;42.70;;;;;;6162913;23;20349;-84
2022/09/11 09:42:15;;;;;;;;;;;26.20;42.60;;;;;;6163846;23;19936;-82
2022/09/11 09:44:45;;;;;;;;;;;26.30;42.10;;;;;;6158244;23;19904;-82
2022/09/11 09:47:13;;;;;;;;;;;26.10;41.30;;;;;;6160644;23;19968;-82
2022/09/11 09:49:40;;;;;;;;;;;26.20;43.20;;;;;;6167873;23;19916;-82
2022/09/11 09:52:16;;;;;;;;;;;26.10;41.60;;;;;;6154259;23;19925;-81
2022/09/11 09:55:03;;;;;;;;;;;26.40;41.30;;;;;;6155586;23;19999;-83
2022/09/11 09:57:35;;;;;;;;;;;26.60;40.00;;;;;;6159179;23;19920;-83
2022/09/11 10:00:14;;;;;;;;;;;26.20;42.20;;;;;;6159044;23;20338;-83
2022/09/11 10:02:40;;;;;;;;;;;26.40;43.10;;;;;;6157839;23;19970;-82
2022/09/11 10:05:18;;;;;;;;;;;26.60;41.00;;;;;;6158525;23;19944;-82
2022/09/11 10:07:46;;;;;;;;;;;26.50;39.90;;;;;;6152847;23;19998;-81
2022/09/11 10:10:40;;;;;;;0.10;0.10;;;26.40;40.60;;;;;;6157762;23;19916;-82
2022/09/11 10:13:12;;;;;;;;;;;26.40;40.80;;;;;;6150502;23;20410;-82
2022/09/11 10:15:48;;;;;;;0.10;0.10;;;26.40;41.50;;;;;;6158938;23;19920;-83
2022/09/11 10:18:28;;;;;;;0.10;0.10;;;26.60;41.30;;;;;;6165705;23;20033;-82
2022/09/11 10:21:20;;;;;;;0.10;0.10;;;26.60;40.00;;;;;;6159381;23;20045;-81
2022/09/11 10:23:49;;;;;;;;;;;26.90;39.10;;;;;;6153353;23;20030;-82
2022/09/11 10:26:19;;;;;;;;;;;26.90;41.10;;;;;;6158230;23;20295;-82
2022/09/11 10:28:46;;;;;;;;;;;26.60;40.00;;;;;;6158200;23;19995;-82
2022/09/11 10:31:15;;;;;;;;;;;26.90;42.00;;;;;;6157825;23;19952;-82
2022/09/11 10:33:47;;;;;;;;;;;26.70;39.00;;;;;;6153720;23;19995;-82
2022/09/11 10:36:20;;;;;;;;;;;26.60;41.20;;;;;;6153634;23;19923;-82
2022/09/11 10:38:47;;;;;;;;;;;26.80;40.60;;;;;;6156168;23;20257;-82
2022/09/11 10:41:17;;;;;;;;;;;26.70;41.70;;;;;;6153293;23;19917;-82
2022/09/11 10:43:59;;;;;;;;;;;26.50;39.80;;;;;;6158150;23;19917;-82
2022/09/11 10:46:27;;;;;;;;;;;26.50;41.00;;;;;;6156615;23;19920;-82
2022/09/11 10:49:05;;;;;;;;;;;26.60;41.10;;;;;;6157828;23;19916;-83
2022/09/11 10:51:36;;;;;;;;;;;26.90;40.40;;;;;;6160808;23;19920;-82
2022/09/11 10:54:07;;;;;;;;;;;27.00;42.40;;;;;;6156777;23;19947;-82
2022/09/11 10:56:37;;;;;;;;;;;27.30;39.40;;;;;;6156320;23;19916;-83
2022/09/11 10:59:09;;;;;;;;;;;27.00;38.50;;;;;;6153623;23;19917;-83
2022/09/11 11:01:36;;;;;;;;;;;27.00;39.90;;;;;;6155096;23;20348;-82
2022/09/11 11:04:03;;;;;;;;;;;27.20;40.20;;;;;;6160198;23;19939;-82
2022/09/11 11:06:33;;;;;;;;;;;27.20;38.20;;;;;;6159770;23;19936;-81
2022/09/11 11:09:05;;;;;;;;;;;27.00;38.90;;;;;;6159257;23;20378;-81
2022/09/11 11:11:32;;;;;;;;;;;27.20;39.30;;;;;;6152846;23;20357;-82
2022/09/11 11:14:06;;;;;;;;;;;27.40;38.30;;;;;;6153312;23;19917;-82
2022/09/11 11:16:32;;;;;;;;;;;27.40;38.60;;;;;;6154602;23;19976;-82
2022/09/11 11:19:12;;;;;;;;;;;27.60;38.70;;;;;;6154092;23;19947;-82
2022/09/11 11:21:51;;;;;;;;;;;27.80;39.20;;;;;;6153980;23;19916;-81
2022/09/11 11:24:33;;;;;;;;;;;28.00;38.90;;;;;;6153125;23;19916;-82
2022/09/11 11:27:21;;;;;;;0.10;0.10;;;27.70;38.00;;;;;;6154287;23;19927;-82
2022/09/11 11:29:53;;;;;;;0.20;0.15;;;27.60;37.30;;;;;;6152519;23;20462;-82
2022/09/11 11:32:42;;;;;;;0.20;0.10;;;27.30;39.40;;;;;;6152859;23;20021;-82
2022/09/11 11:35:32;;;;;;;0.45;0.10;;;27.70;39.90;;;;;;6154050;23;20021;-82
2022/09/11 11:38:45;;;;;;;0.10;0.10;;;27.60;38.40;;;;;;6152882;23;20089;-83
2022/09/11 11:41:24;;;;;;;0.10;0.10;;;27.40;38.90;;;;;;6131807;23;20033;-82
2022/09/11 11:43:54;;;;;;;0.10;0.10;;;27.20;39.90;;;;;;6152024;23;20022;-83
2022/09/11 11:46:28;;;;;;;0.20;0.20;;;27.60;39.80;;;;;;6154394;23;20022;-82
2022/09/11 11:49:13;;;;;;;0.65;0.43;;;27.30;39.60;;;;;;6153089;23;20021;-83
2022/09/11 11:51:54;;;;;;;0.10;0.10;;;27.30;39.70;;;;;;6153856;23;20089;-82
2022/09/11 11:54:36;;;;;;;0.10;0.10;;;27.50;41.60;;;;;;6151731;23;20400;-83
2022/09/11 11:57:13;;;;;;;0.10;0.10;;;27.60;39.10;;;;;;6151952;23;20355;-82
2022/09/11 11:59:54;;;;;;;0.30;0.10;;;28.00;41.50;;;;;;6152798;23;20100;-82
2022/09/11 12:02:38;;;;;;;0.15;0.15;;;28.20;39.80;;;;;;6152512;23;20093;-83
2022/09/11 12:05:17;;;;;;;0.30;0.10;;;28.40;38.80;;;;;;6152294;23;20021;-82
2022/09/11 12:07:46;;;;;;;0.10;0.10;;;28.70;38.70;;;;;;6152792;23;20092;-83
2022/09/11 12:10:41;;;;;;;0.20;0.10;;;28.40;38.90;;;;;;6152130;23;20485;-82
2022/09/11 12:13:14;;;;;;;0.10;0.10;;;28.70;37.50;;;;;;6150446;23;20466;-83
2022/09/11 12:16:16;;;;;;;0.08;0.08;;;28.80;38.00;;;;;;6152732;23;20028;-82
2022/09/11 12:19:02;;;;;;;;;;;28.90;38.10;;;;;;6152987;23;20110;-82
2022/09/11 12:21:30;;;;;;;;;;;28.90;37.60;;;;;;6152036;23;19920;-83
2022/09/11 12:23:57;;;;;;;;;;;28.50;37.70;;;;;;6152822;23;19948;-83
2022/09/11 12:26:24;;;;;;;;;;;28.40;39.20;;;;;;6153191;23;19923;-82
2022/09/11 12:29:13;;;;;;;;;;;28.50;37.90;;;;;;6153766;23;19923;-82
2022/09/11 12:32:03;;;;;;;;;;;28.50;38.60;;;;;;6153541;23;20289;-83
2022/09/11 12:34:45;;;;;;;;;;;28.80;38.00;;;;;;6147140;23;19984;-83
2022/09/11 12:37:32;;;;;;;;;;;28.80;38.60;;;;;;6154944;23;20471;-82
2022/09/11 12:40:19;;;;;;;;;;;28.70;37.00;;;;;;6154110;23;19991;-83
2022/09/11 12:42:54;;;;;;;;;;;28.90;38.40;;;;;;6154774;23;19988;-82
2022/09/11 12:45:34;;;;;;;;;;;28.70;39.30;;;;;;6156682;23;19924;-83
2022/09/11 12:48:03;;;;;;;;;;;28.70;38.70;;;;;;6154003;23;19917;-83
2022/09/11 12:50:29;;;;;;;;;;;28.80;37.30;;;;;;6154905;23;19916;-83
2022/09/11 12:53:01;;;;;;;;;;;28.70;37.20;;;;;;6155483;23;19944;-83
2022/09/11 12:55:27;;;;;;;;;;;28.90;38.50;;;;;;6155061;23;19924;-83
2022/09/11 12:57:55;;;;;;;;;;;28.90;38.60;;;;;;6155097;23;19916;-81
2022/09/11 13:00:37;;;;;;;;;;;28.60;37.50;;;;;;6154978;23;19956;-82
2022/09/11 13:03:05;;;;;;;;;;;28.90;37.30;;;;;;6155023;23;19916;-82
2022/09/11 13:05:36;;;;;;;;;;;28.90;37.00;;;;;;6154313;23;19948;-83
2022/09/11 13:08:13;;;;;;;;;;;28.80;37.70;;;;;;6155168;23;19992;-82
2022/09/11 13:10:40;;;;;;;;;;;29.10;38.10;;;;;;6153554;23;20326;-82
2022/09/11 13:13:26;;;;;;;;;;;29.30;37.80;;;;;;6154800;23;19944;-83
2022/09/11 13:15:56;;;;;;;;;;;29.40;37.80;;;;;;6154975;23;19996;-82
2022/09/11 13:18:28;;;;;;;;;;;28.90;37.50;;;;;;6154185;23;19951;-83
2022/09/11 13:21:11;;;;;;;;;;;29.00;38.50;;;;;;6154423;23;19950;-83
2022/09/11 13:23:39;;;;;;;;;;;29.00;37.40;;;;;;6155781;23;19987;-83
2022/09/11 13:26:06;;;;;;;;;;;29.10;37.40;;;;;;6154764;23;19916;-82
2022/09/11 13:28:53;;;;;;;;;;;28.90;36.80;;;;;;6154339;23;19917;-83
2022/09/11 13:31:27;;;;;;;;;;;29.20;36.50;;;;;;6155128;23;19947;-82
2022/09/11 13:33:54;;;;;;;;;;;29.70;35.60;;;;;;6154459;23;20245;-82
2022/09/11 13:36:23;;;;;;;;;;;29.70;36.40;;;;;;6153866;23;20356;-82
2022/09/11 13:38:56;;;;;;;;;;;29.90;36.30;;;;;;6154241;23;19917;-82
2022/09/11 13:41:24;;;;;;;;;;;29.80;36.00;;;;;;6153553;23;20007;-83
2022/09/11 13:43:54;;;;;;;;;;;29.90;34.80;;;;;;6153828;23;19920;-82
2022/09/11 13:46:30;;;;;;;0.38;0.20;;;30.30;34.50;;;;;;6153172;23;19916;-83
2022/09/11 13:49:18;;;;;;;;;;;30.80;34.30;;;;;;6154435;23;20359;-83
2022/09/11 13:51:45;;;;;;;;;;;30.30;34.50;;;;;;6154100;23;19917;-82
2022/09/11 13:54:25;;;;;;;;;;;29.70;36.40;;;;;;6154066;23;19942;-83
2022/09/11 13:56:54;;;;;;;;;;;29.50;35.70;;;;;;6153629;23;19921;-83
2022/09/11 13:59:43;;;;;;;;;;;29.40;37.00;;;;;;6156685;23;19995;-82
2022/09/11 14:02:23;;;;;;;;;;;29.60;36.40;;;;;;6153399;23;19916;-84
2022/09/11 14:04:51;;;;;;;;;;;29.10;35.70;;;;;;6153725;23;20249;-83
2022/09/11 14:07:19;;;;;;;;;;;29.30;36.60;;;;;;6154001;23;19984;-82
2022/09/11 14:09:47;;;;;;;;;;;29.70;34.80;;;;;;6155633;23;19920;-83
2022/09/11 14:12:14;;;;;;;;;;;29.90;34.80;;;;;;6158747;23;19991;-82
2022/09/11 14:14:45;;;;;;;;;;;30.10;34.70;;;;;;6153717;23;19995;-83
2022/09/11 14:17:13;;;;;;;;;;;30.10;34.20;;;;;;6154118;23;19916;-82
2022/09/11 14:19:41;;;;;;;;;;;30.20;34.70;;;;;;6155580;23;19916;-83
2022/09/11 14:22:15;;;;;;;;;;;30.30;34.40;;;;;;6153021;23;19925;-83
2022/09/11 14:24:52;;;;;;;;;;;29.70;34.70;;;;;;6154038;23;19916;-83
2022/09/11 14:27:33;;;;;;;;;;;30.10;35.70;;;;;;6153105;23;19948;-82
2022/09/11 14:30:00;;;;;;;;;;;30.10;34.60;;;;;;6154473;23;19964;-83
2022/09/11 14:32:31;;;;;;;;;;;29.90;35.00;;;;;;6156953;23;20342;-82